createdAt,value
2018-07-12T00:00:35.242Z,42.17
2018-07-12T00:01:39.464Z,37.70
2018-07-12T00:02:44.268Z,37.25
2018-07-12T00:03:49.380Z,37.98
2018-07-12T00:04:55.024Z,35.50
2018-07-12T00:05:59.737Z,35.85
2018-07-12T00:07:04.888Z,46.33
2018-07-12T00:08:09.578Z,36.40
2018-07-12T00:09:14.400Z,37.95
2018-07-12T00:10:19.024Z,34.92
2018-07-12T00:11:23.936Z,33.55
2018-07-12T00:12:28.141Z,36.33
2018-07-12T00:13:32.884Z,43.70
2018-07-12T00:14:37.601Z,58.13
2018-07-12T00:15:41.779Z,32.85
2018-07-12T00:16:46.623Z,33.23
2018-07-12T00:17:51.133Z,33.63
2018-07-12T00:18:55.443Z,51.95
2018-07-12T00:20:00.339Z,31.90
2018-07-12T00:21:04.850Z,43.00
2018-07-12T00:22:09.467Z,29.15
2018-07-12T00:23:14.090Z,37.03
2018-07-12T00:24:18.719Z,27.30
2018-07-12T00:25:23.921Z,40.10
2018-07-12T00:26:28.562Z,37.70
2018-07-12T00:27:33.279Z,39.70
2018-07-12T00:28:38.087Z,32.95
2018-07-12T00:29:42.818Z,39.20
2018-07-12T00:30:47.612Z,40.43
2018-07-12T00:31:52.869Z,51.35
2018-07-12T00:32:57.453Z,47.03
2018-07-12T00:34:01.820Z,45.35
2018-07-12T00:35:06.594Z,40.95
2018-07-12T00:36:11.634Z,38.60
2018-07-12T00:37:16.729Z,32.13
2018-07-12T00:38:21.651Z,37.88
2018-07-12T00:39:26.176Z,37.50
2018-07-12T00:40:30.806Z,44.08
2018-07-12T00:41:35.496Z,30.20
2018-07-12T00:42:39.905Z,32.55
2018-07-12T00:43:44.520Z,33.45
2018-07-12T00:44:49.236Z,35.03
2018-07-12T00:45:53.660Z,29.07
2018-07-12T00:46:57.977Z,37.20
2018-07-12T00:48:03.209Z,40.73
2018-07-12T00:49:07.708Z,29.20
2018-07-12T00:50:12.648Z,35.05
2018-07-12T00:51:17.563Z,26.52
2018-07-12T00:52:22.588Z,29.23
2018-07-12T00:53:27.202Z,30.70
2018-07-12T00:54:31.919Z,29.25
2018-07-12T00:55:36.815Z,29.07
2018-07-12T00:56:41.455Z,65.08
2018-07-12T00:57:46.061Z,47.15
2018-07-12T00:58:50.766Z,84.47
2018-07-12T00:59:55.505Z,42.25
2018-07-12T01:01:00.608Z,47.78
2018-07-12T01:02:05.117Z,49.38
2018-07-12T01:03:09.949Z,52.88
2018-07-12T01:04:14.963Z,69.72
2018-07-12T01:05:19.399Z,37.50
2018-07-12T01:06:24.295Z,47.55
2018-07-12T01:07:28.839Z,44.98
2018-07-12T01:08:33.526Z,58.52
2018-07-12T01:09:38.470Z,52.30
2018-07-12T01:10:41.309Z,45.75
2018-07-12T01:11:44.015Z,40.17
2018-07-12T01:12:46.662Z,43.45
2018-07-12T01:13:49.669Z,36.58
2018-07-12T01:14:52.383Z,38.95
2018-07-12T01:15:55.093Z,31.57
2018-07-12T01:16:57.829Z,27.50
2018-07-12T01:18:00.613Z,38.40
2018-07-12T01:19:03.413Z,26.87
2018-07-12T01:20:06.154Z,31.82
2018-07-12T01:21:08.821Z,22.55
2018-07-12T01:22:11.545Z,20.25
2018-07-12T01:23:14.244Z,29.07
2018-07-12T01:24:17.003Z,23.57
2018-07-12T01:25:19.703Z,22.90
2018-07-12T01:26:22.378Z,21.15
2018-07-12T01:27:25.074Z,21.02
2018-07-12T01:28:27.760Z,26.35
2018-07-12T01:29:30.480Z,21.65
2018-07-12T01:30:33.212Z,18.00
2018-07-12T01:31:35.887Z,19.57
2018-07-12T01:32:38.572Z,22.17
2018-07-12T01:33:41.242Z,22.73
2018-07-12T01:34:43.898Z,20.50
2018-07-12T01:35:46.624Z,19.45
2018-07-12T01:36:49.304Z,18.40
2018-07-12T01:37:51.964Z,27.73
2018-07-12T01:38:54.625Z,30.65
2018-07-12T01:39:57.370Z,18.50
2018-07-12T01:41:00.027Z,20.70
2018-07-12T01:42:02.700Z,22.15
2018-07-12T01:43:05.365Z,25.32
2018-07-12T01:44:08.034Z,25.70
2018-07-12T01:45:10.896Z,23.15
2018-07-12T01:46:13.589Z,20.08
2018-07-12T01:47:16.273Z,24.18
2018-07-12T01:48:18.968Z,25.27
2018-07-12T01:49:21.668Z,22.98
2018-07-12T01:50:24.369Z,27.85
2018-07-12T01:51:27.055Z,22.62
2018-07-12T01:52:29.726Z,16.75
2018-07-12T01:53:32.428Z,19.62
2018-07-12T01:54:35.085Z,22.58
2018-07-12T01:55:37.807Z,21.87
2018-07-12T01:56:40.520Z,24.72
2018-07-12T01:57:43.174Z,24.87
2018-07-12T01:58:45.886Z,35.20
2018-07-12T01:59:48.564Z,18.02
2018-07-12T02:00:51.328Z,21.73
2018-07-12T02:01:53.986Z,25.52
2018-07-12T02:02:56.670Z,19.02
2018-07-12T02:03:59.334Z,27.32
2018-07-12T02:05:02.263Z,23.18
2018-07-12T02:06:04.940Z,29.52
2018-07-12T02:07:07.587Z,29.60
2018-07-12T02:08:10.512Z,26.50
2018-07-12T02:09:13.370Z,28.02
2018-07-12T02:10:16.095Z,23.90
2018-07-12T02:11:18.773Z,23.30
2018-07-12T02:12:21.479Z,32.38
2018-07-12T02:13:24.180Z,21.02
2018-07-12T02:14:26.879Z,27.90
2018-07-12T02:15:29.703Z,29.32
2018-07-12T02:16:32.389Z,34.00
2018-07-12T02:17:35.103Z,36.45
2018-07-12T02:18:37.824Z,35.70
2018-07-12T02:19:40.504Z,27.25
2018-07-12T02:20:43.230Z,31.80
2018-07-12T02:21:46.012Z,35.13
2018-07-12T02:22:48.682Z,32.20
2018-07-12T02:23:51.399Z,36.08
2018-07-12T02:24:54.201Z,30.30
2018-07-12T02:25:56.929Z,46.58
2018-07-12T02:26:59.588Z,35.38
2018-07-12T02:28:02.324Z,36.68
2018-07-12T02:29:05.224Z,37.15
2018-07-12T02:30:07.907Z,45.40
2018-07-12T02:31:10.590Z,34.98
2018-07-12T02:32:13.289Z,44.42
2018-07-12T02:33:15.984Z,36.77
2018-07-12T02:34:18.729Z,37.63
2018-07-12T02:35:21.454Z,36.45
2018-07-12T02:36:24.114Z,41.53
2018-07-12T02:37:26.883Z,35.17
2018-07-12T02:38:29.575Z,46.88
2018-07-12T02:39:32.271Z,57.35
2018-07-12T02:40:34.951Z,48.40
2018-07-12T02:41:37.643Z,42.93
2018-07-12T02:42:40.399Z,43.83
2018-07-12T02:43:43.102Z,45.58
2018-07-12T02:44:45.797Z,28.30
2018-07-12T02:45:48.516Z,34.18
2018-07-12T02:46:51.186Z,39.48
2018-07-12T02:47:53.884Z,49.50
2018-07-12T02:48:56.614Z,33.18
2018-07-12T02:49:59.287Z,28.38
2018-07-12T02:51:01.999Z,27.22
2018-07-12T02:52:04.708Z,31.62
2018-07-12T02:53:07.429Z,25.17
2018-07-12T02:54:10.130Z,29.27
2018-07-12T02:55:12.831Z,27.40
2018-07-12T02:56:15.567Z,33.63
2018-07-12T02:57:18.240Z,24.70
2018-07-12T02:58:20.982Z,29.95
2018-07-12T02:59:23.695Z,34.23
2018-07-12T03:00:26.376Z,23.18
2018-07-12T03:01:29.103Z,27.60
2018-07-12T03:02:31.775Z,23.45
2018-07-12T03:03:34.458Z,27.75
2018-07-12T03:04:37.191Z,28.47
2018-07-12T03:05:39.895Z,31.85
2018-07-12T03:06:42.628Z,28.38
2018-07-12T03:07:45.325Z,29.80
2018-07-12T03:08:47.987Z,30.30
2018-07-12T03:09:50.675Z,25.68
2018-07-12T03:10:53.330Z,25.75
2018-07-12T03:11:56.064Z,28.45
2018-07-12T03:12:58.740Z,27.13
2018-07-12T03:14:01.446Z,30.90
2018-07-12T03:15:04.266Z,32.33
2018-07-12T03:16:06.953Z,30.00
2018-07-12T03:17:09.622Z,25.92
2018-07-12T03:18:12.342Z,24.12
2018-07-12T03:19:14.996Z,27.05
2018-07-12T03:20:17.709Z,27.50
2018-07-12T03:21:20.485Z,29.82
2018-07-12T03:22:23.166Z,25.92
2018-07-12T03:23:25.852Z,28.98
2018-07-12T03:24:28.532Z,26.20
2018-07-12T03:25:31.260Z,30.85
2018-07-12T03:26:33.934Z,30.43
2018-07-12T03:27:36.628Z,29.77
2018-07-12T03:28:39.330Z,27.02
2018-07-12T03:29:42.068Z,39.98
2018-07-12T03:30:44.797Z,33.95
2018-07-12T03:31:47.466Z,31.65
2018-07-12T03:32:50.204Z,27.60
2018-07-12T03:33:52.912Z,41.05
2018-07-12T03:34:55.607Z,27.10
2018-07-12T03:35:58.325Z,32.20
2018-07-12T03:37:01.094Z,34.23
2018-07-12T03:38:03.786Z,29.52
2018-07-12T03:39:06.485Z,33.30
2018-07-12T03:40:09.182Z,23.47
2018-07-12T03:41:11.893Z,33.00
2018-07-12T03:42:14.600Z,28.85
2018-07-12T03:43:17.476Z,28.02
2018-07-12T03:44:20.186Z,25.80
2018-07-12T03:45:22.863Z,27.30
2018-07-12T03:46:25.549Z,27.48
2018-07-12T03:47:28.245Z,29.10
2018-07-12T03:48:30.976Z,28.92
2018-07-12T03:49:33.650Z,26.17
2018-07-12T03:50:36.328Z,33.08
2018-07-12T03:51:39.024Z,28.92
2018-07-12T03:52:41.705Z,27.17
2018-07-12T03:53:44.406Z,26.40
2018-07-12T03:54:47.148Z,26.97
2018-07-12T03:55:49.812Z,31.93
2018-07-12T03:56:52.551Z,27.13
2018-07-12T03:57:55.243Z,31.10
2018-07-12T03:58:57.939Z,29.05
2018-07-12T04:00:00.630Z,34.03
2018-07-12T04:01:03.331Z,30.35
2018-07-12T04:02:06.073Z,34.80
2018-07-12T04:03:08.732Z,38.10
2018-07-12T04:04:11.449Z,41.08
2018-07-12T04:05:14.170Z,31.48
2018-07-12T04:06:16.854Z,34.50
2018-07-12T04:07:19.715Z,40.00
2018-07-12T04:08:22.437Z,45.85
2018-07-12T04:09:25.156Z,37.42
2018-07-12T04:10:27.850Z,34.40
2018-07-12T04:11:30.514Z,41.35
2018-07-12T04:12:33.236Z,32.55
2018-07-12T04:13:35.933Z,41.48
2018-07-12T04:14:38.651Z,37.50
2018-07-12T04:15:41.320Z,38.98
2018-07-12T04:16:44.039Z,34.95
2018-07-12T04:17:46.735Z,38.28
2018-07-12T04:18:49.433Z,36.20
2018-07-12T04:19:52.122Z,35.58
2018-07-12T04:20:54.808Z,40.48
2018-07-12T04:21:57.549Z,38.67
2018-07-12T04:23:00.226Z,31.35
2018-07-12T04:24:02.940Z,39.30
2018-07-12T04:25:05.633Z,35.60
2018-07-12T04:26:08.362Z,35.38
2018-07-12T04:27:11.242Z,34.25
2018-07-12T04:28:13.984Z,35.03
2018-07-12T04:29:16.725Z,31.52
2018-07-12T04:30:19.434Z,35.58
2018-07-12T04:31:22.130Z,35.10
2018-07-12T04:32:24.858Z,35.43
2018-07-12T04:33:27.567Z,36.17
2018-07-12T04:34:30.267Z,32.30
2018-07-12T04:35:32.972Z,31.90
2018-07-12T04:36:35.704Z,36.95
2018-07-12T04:37:38.403Z,30.70
2018-07-12T04:38:41.085Z,31.62
2018-07-12T04:39:44.212Z,37.45
2018-07-12T04:40:46.887Z,30.97
2018-07-12T04:41:49.628Z,37.88
2018-07-12T04:42:52.323Z,33.18
2018-07-12T04:43:55.034Z,29.90
2018-07-12T04:44:57.696Z,28.42
2018-07-12T04:46:00.449Z,31.75
2018-07-12T04:47:03.202Z,28.87
2018-07-12T04:48:05.937Z,43.92
2018-07-12T04:49:08.616Z,32.60
2018-07-12T04:50:11.334Z,34.15
2018-07-12T04:51:14.027Z,29.82
2018-07-12T04:52:16.719Z,28.95
2018-07-12T04:53:19.430Z,41.50
2018-07-12T04:54:22.252Z,35.92
2018-07-12T04:55:24.941Z,30.60
2018-07-12T04:56:27.673Z,34.48
2018-07-12T04:57:30.377Z,32.63
2018-07-12T04:58:33.158Z,33.18
2018-07-12T04:59:35.811Z,27.42
2018-07-12T05:00:38.509Z,29.98
2018-07-12T05:01:41.188Z,35.48
2018-07-12T05:02:43.899Z,32.93
2018-07-12T05:03:46.701Z,33.67
2018-07-12T05:04:49.374Z,32.30
2018-07-12T05:05:52.086Z,32.42
2018-07-12T05:06:54.793Z,33.67
2018-07-12T05:07:57.476Z,37.83
2018-07-12T05:09:00.221Z,30.52
2018-07-12T05:10:02.881Z,38.70
2018-07-12T05:11:05.571Z,29.98
2018-07-12T05:12:08.252Z,33.90
2018-07-12T05:13:11.100Z,30.90
2018-07-12T05:14:13.813Z,35.85
2018-07-12T05:15:16.531Z,39.70
2018-07-12T05:16:19.297Z,43.95
2018-07-12T05:17:22.093Z,33.95
2018-07-12T05:18:24.795Z,39.58
2018-07-12T05:19:27.494Z,34.05
2018-07-12T05:20:30.162Z,34.13
2018-07-12T05:21:32.853Z,38.10
2018-07-12T05:22:35.535Z,33.00
2018-07-12T05:23:38.217Z,37.83
2018-07-12T05:24:40.934Z,34.85
2018-07-12T05:25:43.684Z,29.95
2018-07-12T05:26:46.380Z,35.55
2018-07-12T05:27:49.085Z,38.90
2018-07-12T05:28:51.793Z,37.67
2018-07-12T05:29:54.492Z,26.93
2018-07-12T05:30:57.238Z,34.63
2018-07-12T05:31:59.930Z,33.58
2018-07-12T05:33:02.597Z,40.25
2018-07-12T05:34:05.289Z,31.30
2018-07-12T05:35:07.969Z,32.50
2018-07-12T05:36:14.912Z,31.37
2018-07-12T05:37:18.184Z,35.63
2018-07-12T05:38:21.498Z,28.17
2018-07-12T05:39:25.014Z,33.98
2018-07-12T05:40:28.250Z,39.15
2018-07-12T05:41:31.574Z,30.08
2018-07-12T05:42:34.818Z,34.70
2018-07-12T05:43:38.076Z,33.88
2018-07-12T05:44:41.330Z,30.35
2018-07-12T05:45:44.637Z,28.80
2018-07-12T05:46:48.207Z,29.82
2018-07-12T05:47:51.448Z,30.55
2018-07-12T05:48:54.766Z,36.08
2018-07-12T05:49:58.064Z,35.95
2018-07-12T05:51:01.336Z,34.78
2018-07-12T05:52:04.617Z,41.05
2018-07-12T05:53:07.909Z,40.23
2018-07-12T05:54:11.219Z,37.90
2018-07-12T05:55:14.516Z,37.98
2018-07-12T05:56:17.813Z,28.55
2018-07-12T05:57:21.136Z,33.92
2018-07-12T05:58:24.391Z,29.35
2018-07-12T05:59:27.684Z,32.17
2018-07-12T06:00:31.021Z,32.50
2018-07-12T06:01:39.691Z,37.05
2018-07-12T06:02:43.035Z,37.00
2018-07-12T06:03:46.323Z,41.05
2018-07-12T06:04:49.903Z,33.80
2018-07-12T06:05:53.167Z,43.20
2018-07-12T06:06:56.452Z,30.45
2018-07-12T06:07:59.811Z,35.75
2018-07-12T06:09:04.104Z,37.58
2018-07-12T06:10:07.445Z,36.05
2018-07-12T06:11:10.813Z,33.53
2018-07-12T06:12:14.064Z,41.98
2018-07-12T06:13:17.616Z,35.58
2018-07-12T06:14:20.939Z,30.23
2018-07-12T06:15:24.256Z,37.30
2018-07-12T06:16:27.530Z,31.57
2018-07-12T06:17:30.783Z,28.52
2018-07-12T06:18:34.042Z,38.73
2018-07-12T06:19:37.331Z,29.52
2018-07-12T06:20:40.580Z,33.00
2018-07-12T06:21:43.933Z,30.97
2018-07-12T06:22:47.268Z,38.40
2018-07-12T06:23:50.720Z,36.60
2018-07-12T06:24:54.099Z,28.62
2018-07-12T06:25:57.373Z,28.87
2018-07-12T06:27:00.687Z,28.42
2018-07-12T06:28:03.993Z,28.17
2018-07-12T06:29:07.245Z,35.98
2018-07-12T06:30:10.620Z,30.52
2018-07-12T06:31:13.988Z,29.65
2018-07-12T06:32:17.301Z,29.42
2018-07-12T06:33:20.577Z,26.20
2018-07-12T06:34:23.833Z,33.10
2018-07-12T06:35:27.149Z,31.45
2018-07-12T06:36:30.420Z,34.48
2018-07-12T06:37:33.725Z,29.10
2018-07-12T06:38:36.994Z,31.45
2018-07-12T06:39:40.342Z,30.90
2018-07-12T06:40:43.645Z,36.73
2018-07-12T06:41:46.942Z,25.80
2018-07-12T06:42:50.268Z,26.80
2018-07-12T06:43:53.523Z,27.17
2018-07-12T06:44:56.830Z,26.87
2018-07-12T06:46:00.179Z,24.50
2018-07-12T06:47:03.452Z,33.10
2018-07-12T06:48:06.729Z,23.10
2018-07-12T06:49:10.049Z,27.15
2018-07-12T06:50:13.365Z,24.05
2018-07-12T06:51:16.605Z,35.52
2018-07-12T06:52:19.899Z,30.55
2018-07-12T06:53:23.487Z,25.48
2018-07-12T06:54:26.790Z,26.82
2018-07-12T06:55:30.069Z,23.05
2018-07-12T06:56:33.369Z,29.63
2018-07-12T06:57:36.680Z,27.82
2018-07-12T06:58:39.951Z,27.70
2018-07-12T06:59:43.209Z,27.75
2018-07-12T07:00:46.438Z,27.45
2018-07-12T07:01:49.744Z,23.38
2018-07-12T07:02:53.016Z,25.72
2018-07-12T07:03:56.559Z,21.77
2018-07-12T07:04:59.831Z,27.10
2018-07-12T07:06:03.104Z,30.25
2018-07-12T07:07:06.554Z,22.87
2018-07-12T07:08:09.840Z,22.85
2018-07-12T07:09:13.115Z,25.97
2018-07-12T07:10:16.402Z,25.50
2018-07-12T07:11:19.951Z,23.50
2018-07-12T07:12:23.308Z,19.65
2018-07-12T07:13:26.613Z,24.82
2018-07-12T07:14:29.976Z,21.55
2018-07-12T07:15:33.261Z,21.77
2018-07-12T07:16:36.610Z,18.35
2018-07-12T07:17:39.946Z,23.70
2018-07-12T07:18:43.219Z,21.30
2018-07-12T07:19:46.474Z,20.15
2018-07-12T07:20:50.096Z,20.15
2018-07-12T07:21:53.359Z,18.00
2018-07-12T07:22:56.653Z,19.23
2018-07-12T07:24:00.009Z,16.70
2018-07-12T07:25:03.330Z,18.35
2018-07-12T07:26:06.613Z,18.98
2018-07-12T07:27:09.883Z,18.35
2018-07-12T07:28:13.309Z,19.87
2018-07-12T07:29:16.608Z,19.62
2018-07-12T07:30:19.915Z,16.47
2018-07-12T07:31:23.208Z,13.93
2018-07-12T07:32:26.524Z,14.00
2018-07-12T07:33:29.846Z,15.20
2018-07-12T07:34:33.136Z,13.43
2018-07-12T07:35:36.466Z,18.17
2018-07-12T07:36:39.789Z,14.00
2018-07-12T07:37:43.050Z,17.42
2018-07-12T07:38:46.349Z,13.93
2018-07-12T07:39:49.600Z,16.73
2018-07-12T07:40:52.860Z,14.80
2018-07-12T07:41:56.186Z,17.97
2018-07-12T07:42:59.499Z,17.50
2018-07-12T07:44:02.921Z,19.30
2018-07-12T07:45:06.401Z,16.23
2018-07-12T07:46:09.752Z,14.40
2018-07-12T07:47:13.033Z,17.10
2018-07-12T07:48:16.322Z,15.00
2018-07-12T07:49:19.629Z,15.33
2018-07-12T07:50:22.964Z,16.30
2018-07-12T07:51:26.204Z,16.90
2018-07-12T07:52:29.560Z,16.60
2018-07-12T07:53:32.835Z,17.07
2018-07-12T07:54:36.179Z,15.27
2018-07-12T07:55:39.479Z,18.50
2018-07-12T07:56:42.747Z,16.87
2018-07-12T07:57:46.000Z,14.97
2018-07-12T07:58:49.325Z,16.43
2018-07-12T07:59:52.573Z,16.90
2018-07-12T08:00:55.835Z,16.20
2018-07-12T08:01:59.119Z,15.07
2018-07-12T08:03:02.361Z,17.67
2018-07-12T08:04:05.638Z,14.37
2018-07-12T08:05:08.890Z,18.00
2018-07-12T08:06:12.195Z,22.50
2018-07-12T08:07:15.527Z,17.83
2018-07-12T08:08:18.805Z,16.77
2018-07-12T08:09:22.196Z,14.80
2018-07-12T08:10:25.444Z,17.80
2018-07-12T08:11:28.758Z,13.70
2018-07-12T08:12:32.082Z,15.40
2018-07-12T08:13:35.454Z,14.53
2018-07-12T08:14:38.744Z,18.07
2018-07-12T08:15:42.040Z,14.33
2018-07-12T08:16:45.321Z,19.17
2018-07-12T08:17:48.610Z,16.93
2018-07-12T08:18:51.860Z,13.83
2018-07-12T08:19:55.100Z,14.50
2018-07-12T08:20:58.369Z,14.93
2018-07-12T08:22:02.978Z,19.30
2018-07-12T08:23:06.357Z,15.77
2018-07-12T08:24:09.651Z,15.50
2018-07-12T08:25:12.981Z,15.67
2018-07-12T08:26:16.235Z,18.00
2018-07-12T08:27:19.494Z,16.93
2018-07-12T08:28:24.036Z,14.23
2018-07-12T08:29:27.343Z,17.27
2018-07-12T08:30:30.678Z,13.93
2018-07-12T08:31:34.151Z,17.17
2018-07-12T08:32:37.435Z,17.37
2018-07-12T08:33:40.711Z,19.53
2018-07-12T08:34:43.961Z,17.73
2018-07-12T08:35:47.390Z,15.88
2018-07-12T08:36:50.741Z,18.50
2018-07-12T08:37:54.013Z,21.43
2018-07-12T08:38:57.271Z,15.17
2018-07-12T08:40:00.574Z,16.30
2018-07-12T08:41:03.915Z,13.67
2018-07-12T08:42:07.212Z,18.17
2018-07-12T08:43:11.249Z,12.03
2018-07-12T08:44:14.513Z,17.70
2018-07-12T08:45:17.879Z,12.20
2018-07-12T08:46:21.200Z,13.17
2018-07-12T08:47:24.439Z,10.00
2018-07-12T08:48:27.767Z,20.53
2018-07-12T08:49:31.007Z,15.00
2018-07-12T08:50:34.373Z,10.60
2018-07-12T08:51:37.693Z,12.13
2018-07-12T08:52:40.958Z,15.83
2018-07-12T08:53:44.200Z,14.53
2018-07-12T08:54:47.513Z,11.33
2018-07-12T08:55:50.817Z,11.43
2018-07-12T08:56:54.114Z,11.57
2018-07-12T08:57:57.387Z,11.70
2018-07-12T08:59:00.795Z,10.27
2018-07-12T09:00:04.398Z,16.00
2018-07-12T09:01:07.630Z,9.13
2018-07-12T09:02:10.868Z,16.90
2018-07-12T09:03:14.193Z,10.30
2018-07-12T09:04:17.481Z,11.03
2018-07-12T09:05:20.805Z,16.20
2018-07-12T09:06:24.100Z,11.57
2018-07-12T09:07:27.547Z,13.50
2018-07-12T09:08:30.866Z,12.63
2018-07-12T09:09:34.177Z,11.73
2018-07-12T09:10:37.545Z,11.53
2018-07-12T09:11:40.864Z,11.87
2018-07-12T09:12:44.195Z,17.00
2018-07-12T09:13:47.564Z,13.80
2018-07-12T09:14:50.811Z,16.63
2018-07-12T09:15:54.142Z,14.43
2018-07-12T09:16:57.408Z,14.70
2018-07-12T09:18:00.676Z,18.83
2018-07-12T09:19:04.023Z,15.50
2018-07-12T09:20:07.420Z,18.20
2018-07-12T09:21:10.679Z,19.30
2018-07-12T09:22:13.982Z,15.97
2018-07-12T09:23:17.384Z,16.60
2018-07-12T09:24:20.663Z,16.50
2018-07-12T09:25:23.995Z,17.17
2018-07-12T09:26:27.284Z,17.10
2018-07-12T09:27:30.557Z,20.13
2018-07-12T09:28:40.479Z,16.60
2018-07-12T09:29:43.803Z,20.00
2018-07-12T09:30:47.169Z,15.40
2018-07-12T09:31:50.454Z,19.17
2018-07-12T09:32:53.751Z,14.73
2018-07-12T09:33:57.152Z,16.30
2018-07-12T09:35:00.453Z,17.87
2018-07-12T09:36:03.764Z,17.80
2018-07-12T09:37:07.053Z,19.27
2018-07-12T09:38:15.824Z,12.73
2018-07-12T09:39:19.127Z,16.17
2018-07-12T09:40:22.455Z,13.27
2018-07-12T09:41:25.795Z,18.27
2018-07-12T09:42:29.099Z,14.57
2018-07-12T09:43:32.395Z,13.87
2018-07-12T09:44:35.686Z,19.00
2018-07-12T09:45:39.006Z,13.90
2018-07-12T09:46:42.330Z,14.33
2018-07-12T09:47:45.606Z,13.93
2018-07-12T09:48:50.053Z,17.00
2018-07-12T09:49:53.302Z,14.03
2018-07-12T09:50:56.574Z,19.63
2018-07-12T09:51:59.899Z,17.63
2018-07-12T09:53:04.849Z,19.70
2018-07-12T09:54:08.191Z,16.53
2018-07-12T09:55:11.448Z,12.47
2018-07-12T09:56:14.824Z,14.13
2018-07-12T09:57:23.476Z,16.77
2018-07-12T09:58:28.759Z,15.03
2018-07-12T09:59:32.024Z,14.30
2018-07-12T10:00:40.653Z,17.80
2018-07-12T10:01:49.206Z,13.10
2018-07-12T10:02:57.740Z,13.07
2018-07-12T10:04:01.049Z,16.63
2018-07-12T10:05:04.389Z,14.30
2018-07-12T10:06:13.032Z,12.60
2018-07-12T10:07:21.675Z,14.90
2018-07-12T10:08:30.310Z,13.13
2018-07-12T10:09:38.814Z,13.43
2018-07-12T10:10:47.578Z,15.60
2018-07-12T10:11:56.173Z,13.83
2018-07-12T10:13:04.761Z,16.80
2018-07-12T10:14:13.335Z,17.37
2018-07-12T10:15:21.886Z,20.57
2018-07-12T10:16:30.430Z,14.90
2018-07-12T10:17:48.993Z,15.97
2018-07-12T10:18:52.292Z,21.90
2018-07-12T10:19:55.567Z,16.83
2018-07-12T10:20:59.340Z,16.63
2018-07-12T10:22:02.633Z,15.73
2018-07-12T10:23:05.982Z,16.90
2018-07-12T10:24:09.618Z,17.97
2018-07-12T10:25:13.259Z,13.80
2018-07-12T10:26:17.007Z,18.37
2018-07-12T10:27:20.700Z,12.67
2018-07-12T10:28:24.339Z,12.67
2018-07-12T10:29:28.028Z,17.03
2018-07-12T10:30:31.707Z,16.00
2018-07-12T10:31:35.313Z,16.30
2018-07-12T10:32:38.961Z,13.70
2018-07-12T10:33:42.637Z,12.10
2018-07-12T10:34:46.414Z,14.97
2018-07-12T10:35:50.245Z,14.53
2018-07-12T10:36:53.921Z,13.47
2018-07-12T10:37:57.548Z,13.97
2018-07-12T10:39:01.198Z,17.20
2018-07-12T10:40:04.985Z,16.73
2018-07-12T10:41:08.685Z,19.40
2018-07-12T10:42:12.390Z,19.07
2018-07-12T10:43:16.000Z,16.23
2018-07-12T10:44:19.574Z,16.33
2018-07-12T10:45:23.261Z,15.20
2018-07-12T10:46:26.959Z,13.20
2018-07-12T10:47:30.632Z,14.23
2018-07-12T10:48:34.266Z,16.30
2018-07-12T10:49:37.929Z,12.57
2018-07-12T10:50:41.604Z,19.77
2018-07-12T10:51:45.296Z,12.97
2018-07-12T10:52:48.934Z,15.67
2018-07-12T10:53:52.533Z,13.80
2018-07-12T10:54:56.166Z,11.93
2018-07-12T10:55:59.867Z,14.13
2018-07-12T10:57:03.447Z,10.70
2018-07-12T10:58:11.418Z,11.17
2018-07-12T10:59:18.717Z,10.20
2018-07-12T11:00:26.201Z,10.00
2018-07-12T11:01:33.381Z,10.27
2018-07-12T11:02:41.267Z,9.63
2018-07-12T11:03:47.714Z,8.77
2018-07-12T11:04:55.909Z,9.57
2018-07-12T11:06:04.316Z,12.77
2018-07-12T11:07:13.026Z,8.97
2018-07-12T11:08:21.460Z,7.63
2018-07-12T11:09:31.254Z,8.90
2018-07-12T11:10:38.541Z,7.80
2018-07-12T11:11:46.563Z,12.30
2018-07-12T11:13:03.949Z,7.57
2018-07-12T11:14:12.352Z,9.07
2018-07-12T11:15:20.773Z,9.60
2018-07-12T11:16:29.083Z,9.47
2018-07-12T11:17:38.191Z,13.60
2018-07-12T11:18:46.785Z,9.00
2018-07-12T11:19:55.089Z,11.70
2018-07-12T11:21:03.833Z,10.50
2018-07-12T11:22:12.405Z,14.03
2018-07-12T11:23:19.504Z,15.63
2018-07-12T11:24:27.506Z,8.90
2018-07-12T11:25:35.696Z,9.67
2018-07-12T11:26:43.895Z,12.20
2018-07-12T11:27:51.273Z,8.90
2018-07-12T11:28:59.171Z,10.60
2018-07-12T11:30:06.825Z,14.07
2018-07-12T11:31:14.230Z,8.60
2018-07-12T11:32:21.276Z,8.03
2018-07-12T11:33:48.726Z,7.43
2018-07-12T11:34:57.068Z,11.10
2018-07-12T11:36:04.541Z,12.57
2018-07-12T11:37:13.551Z,6.20
2018-07-12T11:38:21.547Z,7.00
2018-07-12T11:39:28.520Z,5.73
2018-07-12T11:40:36.396Z,8.90
2018-07-12T11:41:43.714Z,7.80
2018-07-12T11:42:52.164Z,5.77
2018-07-12T11:44:01.521Z,6.63
2018-07-12T11:45:09.512Z,10.70
2018-07-12T11:46:17.487Z,9.87
2018-07-12T11:47:25.574Z,8.63
2018-07-12T11:48:34.822Z,10.90
2018-07-12T11:49:42.511Z,8.90
2018-07-12T11:50:50.700Z,9.83
2018-07-12T11:51:59.192Z,7.00
2018-07-12T11:53:06.784Z,6.23
2018-07-12T11:54:14.973Z,14.20
2018-07-12T11:55:23.065Z,7.20
2018-07-12T11:56:31.981Z,7.80
2018-07-12T11:57:40.787Z,7.13
2018-07-12T11:58:49.353Z,8.53
2018-07-12T11:59:56.778Z,9.70
2018-07-12T12:01:04.771Z,6.20
2018-07-12T12:02:12.494Z,8.00
2018-07-12T12:03:20.055Z,7.20
2018-07-12T12:04:28.651Z,5.40
2018-07-12T12:05:32.538Z,6.27
2018-07-12T12:06:35.808Z,6.90
2018-07-12T12:07:39.467Z,9.43
2018-07-12T12:08:43.107Z,8.30
2018-07-12T12:09:46.739Z,6.80
2018-07-12T12:10:50.364Z,6.30
2018-07-12T12:11:53.953Z,7.80
2018-07-12T12:12:57.523Z,8.33
2018-07-12T12:14:01.212Z,12.10
2018-07-12T12:15:04.900Z,6.90
2018-07-12T12:16:08.518Z,12.00
2018-07-12T12:17:12.205Z,7.17
2018-07-12T12:18:15.915Z,7.13
2018-07-12T12:19:19.591Z,11.47
2018-07-12T12:20:23.267Z,10.30
2018-07-12T12:21:26.950Z,11.23
2018-07-12T12:22:30.565Z,8.07
2018-07-12T12:23:34.182Z,8.33
2018-07-12T12:24:37.467Z,8.57
2018-07-12T12:25:41.124Z,9.60
2018-07-12T12:26:44.751Z,7.97
2018-07-12T12:27:48.342Z,9.63
2018-07-12T12:28:51.972Z,6.87
2018-07-12T12:29:55.592Z,7.90
2018-07-12T12:30:59.294Z,6.60
2018-07-12T12:32:02.853Z,7.87
2018-07-12T12:33:07.061Z,10.53
2018-07-12T12:34:10.719Z,7.20
2018-07-12T12:35:14.340Z,6.83
2018-07-12T12:36:17.977Z,7.10
2018-07-12T12:37:21.635Z,6.23
2018-07-12T12:38:25.263Z,6.90
2018-07-12T12:39:28.842Z,6.83
2018-07-12T12:40:32.467Z,7.63
2018-07-12T12:41:36.266Z,8.27
2018-07-12T12:42:39.989Z,11.17
2018-07-12T12:43:43.867Z,12.03
2018-07-12T12:44:47.151Z,8.10
2018-07-12T12:45:50.780Z,10.90
2018-07-12T12:46:54.453Z,10.23
2018-07-12T12:47:58.066Z,8.70
2018-07-12T12:49:01.683Z,8.00
2018-07-12T12:50:05.557Z,9.90
2018-07-12T12:51:09.149Z,7.30
2018-07-12T12:52:12.797Z,6.07
2018-07-12T12:53:17.320Z,7.30
2018-07-12T12:54:20.984Z,16.47
2018-07-12T12:55:24.643Z,8.13
2018-07-12T12:56:28.210Z,11.10
2018-07-12T12:57:32.119Z,7.07
2018-07-12T12:58:38.963Z,8.03
2018-07-12T12:59:46.740Z,9.23
2018-07-12T13:00:53.913Z,7.50
2018-07-12T13:02:02.054Z,15.93
2018-07-12T13:03:09.393Z,9.10
2018-07-12T13:04:17.304Z,13.10
2018-07-12T13:05:24.397Z,11.50
2018-07-12T13:06:31.936Z,14.60
2018-07-12T13:07:40.167Z,10.77
2018-07-12T13:08:47.857Z,12.30
2018-07-12T13:09:58.888Z,11.10
2018-07-12T13:11:07.087Z,10.50
2018-07-12T13:12:14.673Z,7.27
2018-07-12T13:13:22.198Z,10.00
2018-07-12T13:14:30.092Z,10.00
2018-07-12T13:15:37.938Z,8.37
2018-07-12T13:16:45.462Z,12.40
2018-07-12T13:17:52.617Z,9.70
2018-07-12T13:19:00.511Z,8.80
2018-07-12T13:20:08.009Z,7.00
2018-07-12T13:21:14.570Z,7.73
2018-07-12T13:22:22.520Z,6.37
2018-07-12T13:23:30.307Z,5.90
2018-07-12T13:24:37.923Z,7.10
2018-07-12T13:25:45.474Z,6.43
2018-07-12T13:26:52.576Z,5.80
2018-07-12T13:28:00.442Z,7.73
2018-07-12T13:29:07.734Z,8.60
2018-07-12T13:30:14.584Z,5.30
2018-07-12T13:31:22.929Z,7.07
2018-07-12T13:32:30.776Z,7.20
2018-07-12T13:33:38.258Z,8.93
2018-07-12T13:34:46.587Z,10.43
2018-07-12T13:35:54.577Z,5.83
2018-07-12T13:37:02.854Z,4.17
2018-07-12T13:38:09.953Z,5.40
2018-07-12T13:39:17.957Z,9.23
2018-07-12T13:40:25.619Z,7.40
2018-07-12T13:41:33.075Z,5.00
2018-07-12T13:42:41.005Z,6.87
2018-07-12T13:43:48.896Z,4.90
2018-07-12T13:44:57.716Z,10.97
2018-07-12T13:46:04.892Z,10.07
2018-07-12T13:47:13.184Z,8.83
2018-07-12T13:48:21.495Z,7.37
2018-07-12T13:49:29.079Z,8.83